createdAt,value
2023-09-17T00:04:51.862Z,2.20
2023-09-17T00:09:56.866Z,1.90
2023-09-17T00:15:00.971Z,1.77
2023-09-17T00:20:06.482Z,1.87
2023-09-17T00:25:12.300Z,1.98
2023-09-17T00:30:16.356Z,2.10
2023-09-17T00:35:20.336Z,2.75
2023-09-17T00:40:30.995Z,1.98
2023-09-17T00:45:35.251Z,2.17
2023-09-17T00:50:40.851Z,1.70
2023-09-17T00:55:46.276Z,2.20
2023-09-17T01:00:50.242Z,2.40
2023-09-17T01:05:55.835Z,2.67
2023-09-17T01:11:02.652Z,2.17
2023-09-17T01:16:07.123Z,2.12
2023-09-17T01:21:19.181Z,2.33
2023-09-17T01:26:27.621Z,2.72
2023-09-17T01:31:35.929Z,1.87
2023-09-17T01:36:43.601Z,2.30
2023-09-17T01:41:47.584Z,2.62
2023-09-17T01:46:53.593Z,2.25
2023-09-17T01:51:57.883Z,2.33
2023-09-17T01:57:02.333Z,2.67
2023-09-17T02:07:11.814Z,2.30
2023-09-17T02:12:15.722Z,2.95
2023-09-17T02:17:20.730Z,2.80
2023-09-17T02:22:24.730Z,1.98
2023-09-17T02:27:28.688Z,2.22
2023-09-17T02:32:33.918Z,2.20
2023-09-17T02:37:38.270Z,1.70
2023-09-17T02:42:42.284Z,2.00
2023-09-17T02:47:47.375Z,2.20
2023-09-17T02:52:51.519Z,2.20
2023-09-17T02:57:55.969Z,1.80
2023-09-17T03:03:01.084Z,2.22
2023-09-17T03:08:06.691Z,1.95
2023-09-17T03:13:11.223Z,3.17
2023-09-17T03:23:20.447Z,1.85
2023-09-17T03:28:24.447Z,1.87
2023-09-17T03:33:31.801Z,2.28
2023-09-17T03:38:36.348Z,1.48
2023-09-17T03:43:40.417Z,1.95
2023-09-17T03:48:45.539Z,2.25
2023-09-17T03:53:49.713Z,1.98
2023-09-17T03:58:54.836Z,2.45
2023-09-17T04:04:00.925Z,2.53
2023-09-17T04:09:06.390Z,2.20
2023-09-17T04:14:10.893Z,2.08
2023-09-17T04:19:16.823Z,1.80
2023-09-17T04:24:22.474Z,2.00
2023-09-17T04:34:31.117Z,1.75
2023-09-17T04:39:35.043Z,2.20
2023-09-17T04:44:39.012Z,1.80
2023-09-17T04:49:44.992Z,2.00
2023-09-17T04:54:49.405Z,1.90
2023-09-17T04:59:53.562Z,1.60
2023-09-17T05:04:58.734Z,1.23
2023-09-17T05:10:02.616Z,1.27
2023-09-17T05:15:07.152Z,1.10
2023-09-17T05:20:13.842Z,0.93
2023-09-17T05:25:18.152Z,1.00
2023-09-17T05:35:27.098Z,1.00
2023-09-17T05:40:31.071Z,1.08
2023-09-17T05:45:34.971Z,1.45
2023-09-17T05:55:45.114Z,1.10
2023-09-17T06:00:49.653Z,0.88
2023-09-17T06:05:56.937Z,1.00
2023-09-17T06:11:00.828Z,0.82
2023-09-17T06:16:06.025Z,0.90
2023-09-17T06:21:11.487Z,1.00
2023-09-17T06:26:15.595Z,1.15
2023-09-17T06:31:20.059Z,1.20
2023-09-17T06:36:28.352Z,1.10
2023-09-17T06:41:34.554Z,1.00
2023-09-17T06:46:41.222Z,1.10
2023-09-17T06:51:46.545Z,1.40
2023-09-17T06:56:50.492Z,1.15
2023-09-17T07:01:54.718Z,1.00
2023-09-17T07:07:01.979Z,0.82
2023-09-17T07:12:06.634Z,1.35
2023-09-17T07:17:10.792Z,0.98
2023-09-17T07:27:19.964Z,1.05
2023-09-17T07:32:23.941Z,1.40
2023-09-17T07:37:36.997Z,1.00
2023-09-17T07:42:52.717Z,1.10
2023-09-17T07:47:56.760Z,2.20
2023-09-17T07:53:03.463Z,1.52
2023-09-17T07:58:07.502Z,1.00
2023-09-17T08:03:11.568Z,0.62
2023-09-17T08:08:16.882Z,0.80
2023-09-17T08:13:21.383Z,0.62
2023-09-17T08:18:25.358Z,0.52
2023-09-17T08:23:30.350Z,0.55
2023-09-17T08:28:35.298Z,0.73
2023-09-17T08:33:38.973Z,0.70
2023-09-17T08:38:44.828Z,0.60
2023-09-17T08:43:49.107Z,0.75
2023-09-17T08:54:04.705Z,0.93
2023-09-17T08:59:12.449Z,0.60
2023-09-17T09:04:16.621Z,0.85
2023-09-17T09:09:22.698Z,0.70
2023-09-17T09:14:26.770Z,0.70
2023-09-17T09:19:30.700Z,0.90
2023-09-17T09:24:48.358Z,0.57
2023-09-17T09:29:52.422Z,0.40
2023-09-17T09:34:56.446Z,0.62
2023-09-17T09:40:02.233Z,0.50
2023-09-17T09:45:07.208Z,0.60
2023-09-17T09:50:23.143Z,0.47
2023-09-17T09:55:28.891Z,0.77
2023-09-17T10:00:33.377Z,0.70
2023-09-17T10:05:38.425Z,0.55
2023-09-17T10:10:44.474Z,0.50
2023-09-17T10:15:50.009Z,0.70
2023-09-17T10:20:55.413Z,0.55
2023-09-17T10:26:01.617Z,0.80
2023-09-17T10:31:05.883Z,0.93
2023-09-17T10:36:10.377Z,0.75
2023-09-17T10:41:15.754Z,0.60
2023-09-17T10:46:21.335Z,0.57
2023-09-17T10:51:25.314Z,0.60
2023-09-17T10:56:30.591Z,0.80
2023-09-17T11:01:36.122Z,0.43
2023-09-17T11:06:42.143Z,0.55
2023-09-17T11:11:47.481Z,0.62
2023-09-17T11:16:51.286Z,0.90
2023-09-17T11:22:11.371Z,0.90
2023-09-17T11:27:20.644Z,0.77
2023-09-17T11:32:26.327Z,0.98
2023-09-17T11:37:30.174Z,1.00
2023-09-17T11:42:35.179Z,1.20
2023-09-17T11:47:39.323Z,1.20
2023-09-17T11:57:48.953Z,1.37
2023-09-17T12:02:53.823Z,1.08
2023-09-17T12:07:57.943Z,1.25
2023-09-17T12:13:05.204Z,1.17
2023-09-17T12:18:10.200Z,1.00
2023-09-17T12:23:18.184Z,1.33
2023-09-17T12:28:30.131Z,1.20
2023-09-17T12:33:34.143Z,1.37
2023-09-17T12:43:42.732Z,0.88
2023-09-17T12:48:46.972Z,1.15
2023-09-17T12:53:51.317Z,1.02
2023-09-17T12:58:58.870Z,1.10
2023-09-17T13:04:05.665Z,1.10
2023-09-17T13:09:10.658Z,1.23
2023-09-17T13:14:15.733Z,1.67
2023-09-17T13:19:19.981Z,1.08
2023-09-17T13:24:24.276Z,1.42
2023-09-17T13:29:37.686Z,1.20
2023-09-17T13:34:43.623Z,0.97
2023-09-17T13:39:50.865Z,1.83
2023-09-17T13:44:57.523Z,1.12
2023-09-17T13:50:01.839Z,1.00
2023-09-17T13:55:06.323Z,1.02
2023-09-17T14:00:15.526Z,1.27
2023-09-17T14:05:19.604Z,1.30
2023-09-17T14:10:23.711Z,1.27
2023-09-17T14:20:32.575Z,1.17
2023-09-17T14:25:36.715Z,1.00
2023-09-17T14:30:41.746Z,1.40
2023-09-17T14:35:45.686Z,1.45
2023-09-17T14:40:49.673Z,0.93
2023-09-17T14:45:54.855Z,1.45
2023-09-17T14:50:59.053Z,1.10
2023-09-17T14:56:03.079Z,1.37
2023-09-17T15:01:11.867Z,0.90
2023-09-17T15:06:19.152Z,0.93
2023-09-17T15:16:27.761Z,1.08
2023-09-17T15:21:31.442Z,1.15
2023-09-17T15:26:35.134Z,0.77
2023-09-17T15:31:41.741Z,0.95
2023-09-17T15:36:45.814Z,0.60
2023-09-17T15:46:55.558Z,0.80
2023-09-17T15:51:59.509Z,0.65
2023-09-17T15:57:03.502Z,1.02
2023-09-17T16:02:08.725Z,1.02
2023-09-17T16:07:15.040Z,0.73
2023-09-17T16:12:20.052Z,0.60
2023-09-17T16:17:25.107Z,0.82
2023-09-17T16:22:29.196Z,0.57
2023-09-17T16:32:38.094Z,0.90
2023-09-17T16:37:42.826Z,0.70
2023-09-17T16:42:58.062Z,0.88
2023-09-17T16:48:12.086Z,0.80
2023-09-17T16:53:16.106Z,0.90
2023-09-17T16:58:20.063Z,1.25
2023-09-17T17:03:25.477Z,0.93
2023-09-17T17:08:30.234Z,0.70
2023-09-17T17:13:34.216Z,0.75
2023-09-17T17:18:39.326Z,0.85
2023-09-17T17:23:43.295Z,1.80
2023-09-17T17:28:47.392Z,0.80
2023-09-17T17:38:58.304Z,0.60
2023-09-17T17:44:02.306Z,0.90
2023-09-17T17:49:07.366Z,0.98
2023-09-17T17:54:11.145Z,0.73
2023-09-17T17:59:14.985Z,1.02
2023-09-17T18:04:20.090Z,1.02
2023-09-17T18:09:24.033Z,1.05
2023-09-17T18:14:27.818Z,0.73
2023-09-17T18:19:35.960Z,0.80
2023-09-17T18:24:39.912Z,0.95
2023-09-17T18:29:43.878Z,0.93
2023-09-17T18:34:48.926Z,0.90
2023-09-17T18:39:54.111Z,1.00
2023-09-17T18:44:57.950Z,1.10
2023-09-17T18:50:03.144Z,0.88
2023-09-17T18:55:07.810Z,0.80
2023-09-17T19:00:14.348Z,1.20
2023-09-17T19:05:19.502Z,0.80
2023-09-17T19:10:23.551Z,1.00
2023-09-17T19:20:32.362Z,0.60
2023-09-17T19:25:36.368Z,1.30
2023-09-17T19:30:40.435Z,1.35
2023-09-17T19:35:46.008Z,0.90
2023-09-17T19:40:50.055Z,0.93
2023-09-17T19:45:56.618Z,0.95
2023-09-17T19:51:02.136Z,0.90
2023-09-17T19:56:06.264Z,1.20
2023-09-17T20:01:10.315Z,0.80
2023-09-17T20:06:15.470Z,1.00
2023-09-17T20:11:20.121Z,1.00
2023-09-17T20:16:24.172Z,0.80
2023-09-17T20:21:31.128Z,0.95
2023-09-17T20:26:37.450Z,1.20
2023-09-17T20:31:41.515Z,1.10
2023-09-17T20:36:46.710Z,1.30
2023-09-17T20:41:51.034Z,1.55
2023-09-17T20:52:00.426Z,1.00
2023-09-17T20:57:04.984Z,1.20
2023-09-17T21:07:13.628Z,0.55
2023-09-17T21:12:17.696Z,0.80
2023-09-17T21:17:21.679Z,0.60
2023-09-17T21:22:26.769Z,0.90
2023-09-17T21:27:30.408Z,0.65
2023-09-17T21:32:34.134Z,0.77
2023-09-17T21:37:39.527Z,0.50
2023-09-17T21:42:44.785Z,0.85
2023-09-17T21:47:48.604Z,0.80
2023-09-17T21:52:53.666Z,0.62
2023-09-17T21:57:57.273Z,0.62
2023-09-17T22:03:01.116Z,1.17
2023-09-17T22:08:07.164Z,0.85
2023-09-17T22:13:11.152Z,0.60
2023-09-17T22:18:14.806Z,0.80
2023-09-17T22:23:20.397Z,0.90
2023-09-17T22:28:24.099Z,0.70
2023-09-17T22:33:28.046Z,1.27
2023-09-17T22:38:33.308Z,0.75
2023-09-17T22:43:37.067Z,0.70
2023-09-17T22:48:45.289Z,0.60
2023-09-17T22:53:51.002Z,0.75
2023-09-17T22:58:55.139Z,0.70
2023-09-17T23:03:59.049Z,0.95
2023-09-17T23:09:04.727Z,0.82
2023-09-17T23:14:09.791Z,0.88
2023-09-17T23:19:13.963Z,0.60
2023-09-17T23:24:19.209Z,0.80
2023-09-17T23:29:23.167Z,0.75
2023-09-17T23:34:27.124Z,1.02
2023-09-17T23:39:32.111Z,0.65
2023-09-17T23:44:35.735Z,1.15
2023-09-17T23:49:39.779Z,1.10
2023-09-17T23:54:44.727Z,0.85
2023-09-17T23:59:48.323Z,1.10
